Nearby METAR Reports

 

KHAO - Hamilton, Ohio, USA
Distance from station: NW 8mi, 14km
Updated: 03/20/2019 4:53am
Clear
Clear
 Wind from calm
Wind: Calm
Temperature: 30°F , -1°C
Dew Point: 25°F , -4°C
Humidity: 80%
Barometer: 30.26 inHg , 1024.7 hPa
Clouds: Clear
Visibility: 10 miles , 16 km
2019/03/20 08:53 KHAO 200853Z AUTO 00000KT 10SM CLR M01/M04 A3026 RMK AO2 SLP252 T10111044 58018
KMWO - Middletown/Hook, Ohio, USA
Distance from station: N 17mi, 27km
Updated: 03/20/2019 4:55am
Clear
Clear
 Wind from calm
Wind: Calm
Temperature: 28°F , -2°C
Dew Point: 25°F , -4°C
Humidity: 86%
Barometer: 30.27 inHg , 1025.1 hPa
Clouds: Clear
Visibility: 10 miles , 16 km
2019/03/20 08:55 KMWO 200855Z AUTO 00000KT 10SM CLR M02/M04 A3027 RMK AO2 T10211038
KCVG - Covington, Kentucky, USA
Distance from station: SW 22mi, 35km
Updated: 03/20/2019 4:52am
Mostly cloudy
Mostly cloudy
 Wind from SE
Wind: SE 3 mph , 6 km/h
Temperature: 37°F , 3°C
Dew Point: 23°F , -5°C
Humidity: 56%
Barometer: 30.24 inHg , 1024 hPa
Clouds: Mostly cloudy
Visibility: 10 miles , 16 km
Cloud details: Mostly cloudy 12000 ft
Mostly cloudy 25000 ft
2019/03/20 08:52 KCVG 200852Z 13003KT 10SM BKN120 BKN250 03/M05 A3024 RMK AO2 SLP240 T00281050 58018
 
KILN - Wilmington, Ohio, USA
Distance from station: ENE 33mi, 54km
Updated: 03/20/2019 4:54am
Clear
Clear
 Wind from calm
Wind: Calm
Temperature: 30°F , -1°C
Dew Point: 21°F , -6°C
Humidity: 69%
Barometer: 30.25 inHg , 1024.4 hPa
Clouds: Clear
Visibility: 10 miles , 16 km
2019/03/20 08:54 KILN 200854Z AUTO 00000KT 10SM CLR M01/M06 A3025 RMK AO2 SLP261 T10061056 58017
KDAY - Dayton, Ohio, USA
Distance from station: NNE 43mi, 70km
Updated: 03/20/2019 4:56am
Mostly cloudy
Mostly cloudy
 Wind from SE
Wind: SE 6 mph , 9 km/h
Temperature: 36°F , 2°C
Wind Chill: 31°F , -1°C
Dew Point: 23°F , -5°C
Humidity: 60%
Barometer: 30.25 inHg , 1024.4 hPa
Clouds: Mostly cloudy
Visibility: 10 miles , 16 km
Cloud details: Mostly cloudy 25000 ft
2019/03/20 08:56 KDAY 200856Z 13005KT 10SM BKN250 02/M05 A3025 RMK AO2 SLP249 T00171050 58020 $
KTZR - Columbus/Bolton, Ohio, USA
Distance from station: ENE 80mi, 128km
Updated: 03/20/2019 4:55am
Clear
Clear
 Wind from calm
Wind: Calm
Temperature: 28°F , -2°C
Dew Point: 27°F , -3°C
Humidity: 93%
Barometer: 30.26 inHg , 1024.7 hPa
Clouds: Clear
Visibility: 10 miles , 16 km
2019/03/20 08:55 KTZR 200855Z AUTO 00000KT 10SM CLR M02/M03 A3026 RMK AO2 T10171035
 
KMGN - Harbor Springs, Michigan, USA
Distance from station: N 417mi, 672km
Updated: 03/20/2019 4:55am
Overcast
Overcast
 Wind from SW
Wind: SW 12 mph , 19 km/h, Gust: 18 mph , 30 km/h
Temperature: 36°F , 2°C
Wind Chill: 28°F , -2°C
Dew Point: 25°F , -4°C
Humidity: 65%
Barometer: 30.02 inHg , 1016.6 hPa
Clouds: Overcast
Visibility: 10 miles , 16 km
Cloud details: Overcast 5000 ft
2019/03/20 08:55 KMGN 200855Z AUTO 22010G16KT 10SM OVC050 02/M04 A3002 RMK AO2 T00291043
KIND - Indianapolis, Indiana, USA
Distance from station: WNW 99mi, 160km
Updated: 03/20/2019 4:54am
Mostly cloudy
Mostly cloudy
 Wind from SE
Wind: SE 8 mph , 13 km/h
Temperature: 37°F , 3°C
Wind Chill: 31°F , -1°C
Dew Point: 25°F , -4°C
Humidity: 60%
Barometer: 30.22 inHg , 1023.4 hPa
Clouds: Mostly cloudy
Visibility: 10 miles , 16 km
Cloud details: Few Clouds 5000 ft
Partly cloudy 11000 ft
Mostly cloudy 25000 ft
2019/03/20 08:54 KIND 200854Z 14007KT 10SM FEW050 SCT110 BKN250 03/M04 A3022 RMK AO2 SLP238 T00331039 58015
KLEX - Lexington, Kentucky, USA
Distance from station: S 87mi, 141km
Updated: 03/20/2019 4:54am
Clear
Clear
 Wind from calm
Wind: Calm
Temperature: 34°F , 1°C
Dew Point: 25°F , -4°C
Humidity: 70%
Barometer: 30.25 inHg , 1024.4 hPa
Clouds: Clear
Visibility: 10 miles , 16 km
2019/03/20 08:54 KLEX 200854Z 00000KT 10SM CLR 01/M04 A3025 RMK AO2 SLP246 T00111044 58013
 
KSDF - Louisville, Kentucky, USA
Distance from station: SW 104mi, 167km
Updated: 03/20/2019 4:56am
Mostly cloudy
Mostly cloudy
 Wind from ESE
Wind: ESE 5 mph , 7 km/h
Temperature: 43°F , 6°C
Wind Chill: 40°F , 4°C
Dew Point: 23°F , -5°C
Humidity: 46%
Barometer: 30.25 inHg , 1024.4 hPa
Clouds: Mostly cloudy
Visibility: 10 miles , 16 km
Cloud details: Mostly cloudy 10000 ft
2019/03/20 08:56 KSDF 200856Z 12004KT 10SM BKN100 06/M05 A3025 RMK AO2 SLP244 T00611050 58015